createdAt,value
2022-09-12T00:01:19.686Z,7.40
2022-09-12T00:03:46.709Z,8.57
2022-09-12T00:06:21.962Z,8.15
2022-09-12T00:08:50.110Z,7.93
2022-09-12T00:11:16.700Z,7.65
2022-09-12T00:13:43.849Z,7.90
2022-09-12T00:16:22.897Z,7.95
2022-09-12T00:18:49.964Z,8.38
2022-09-12T00:21:18.111Z,7.82
2022-09-12T00:23:45.396Z,8.60
2022-09-12T00:26:12.955Z,7.53
2022-09-12T00:28:41.095Z,7.65
2022-09-12T00:31:14.421Z,8.90
2022-09-12T00:33:41.994Z,9.13
2022-09-12T00:36:15.265Z,9.85
2022-09-12T00:38:43.622Z,7.50
2022-09-12T00:41:22.291Z,9.10
2022-09-12T00:43:52.022Z,7.25
2022-09-12T00:46:48.688Z,9.00
2022-09-12T00:49:23.929Z,6.97
2022-09-12T00:52:03.471Z,8.32
2022-09-12T00:54:47.553Z,8.82
2022-09-12T00:57:16.564Z,9.95
2022-09-12T00:59:58.416Z,6.85
2022-09-12T01:02:25.423Z,8.43
2022-09-12T01:04:52.807Z,7.47
2022-09-12T01:07:21.341Z,7.95
2022-09-12T01:09:48.139Z,7.35
2022-09-12T01:12:16.017Z,8.65
2022-09-12T01:14:42.876Z,8.60
2022-09-12T01:17:13.034Z,8.80
2022-09-12T01:20:29.540Z,7.40
2022-09-12T01:22:59.103Z,7.53
2022-09-12T01:25:58.771Z,7.38
2022-09-12T01:28:34.240Z,8.43
2022-09-12T01:31:13.460Z,8.13
2022-09-12T01:33:42.701Z,9.35
2022-09-12T01:36:49.580Z,8.95
2022-09-12T01:39:29.258Z,7.65
2022-09-12T01:42:04.686Z,8.75
2022-09-12T01:44:37.166Z,8.77
2022-09-12T01:47:15.760Z,8.23
2022-09-12T01:50:06.966Z,8.85
2022-09-12T01:52:42.612Z,7.78
2022-09-12T01:55:21.704Z,7.35
2022-09-12T01:57:57.596Z,8.25
2022-09-12T02:00:24.371Z,9.25
2022-09-12T02:03:14.849Z,8.07
2022-09-12T02:05:48.976Z,11.85
2022-09-12T02:08:31.457Z,7.40
2022-09-12T02:11:04.595Z,8.05
2022-09-12T02:13:33.767Z,8.07
2022-09-12T02:16:09.546Z,8.00
2022-09-12T02:18:40.639Z,7.70
2022-09-12T02:21:07.966Z,7.95
2022-09-12T02:23:41.077Z,9.15
2022-09-12T02:26:15.238Z,8.23
2022-09-12T02:28:43.596Z,7.78
2022-09-12T02:31:32.298Z,7.43
2022-09-12T02:34:11.698Z,11.45
2022-09-12T02:37:16.432Z,9.73
2022-09-12T02:39:45.315Z,7.45
2022-09-12T02:42:13.349Z,7.65
2022-09-12T02:44:40.579Z,7.15
2022-09-12T02:47:28.284Z,6.88
2022-09-12T02:49:56.386Z,7.10
2022-09-12T02:52:23.404Z,7.82
2022-09-12T02:54:51.079Z,8.00
2022-09-12T02:57:22.791Z,8.88
2022-09-12T02:59:52.948Z,9.18
2022-09-12T03:02:38.287Z,8.68
2022-09-12T03:05:21.729Z,8.07
2022-09-12T03:08:13.381Z,8.73
2022-09-12T03:11:02.900Z,13.27
2022-09-12T03:13:54.294Z,9.75
2022-09-12T03:16:43.680Z,8.73
2022-09-12T03:19:29.427Z,11.02
2022-09-12T03:22:15.732Z,9.65
2022-09-12T03:25:02.850Z,12.00
2022-09-12T03:27:38.942Z,9.80
2022-09-12T03:30:06.767Z,11.25
2022-09-12T03:32:50.159Z,9.13
2022-09-12T03:35:22.825Z,12.93
2022-09-12T03:37:51.039Z,10.35
2022-09-12T03:40:17.847Z,9.55
2022-09-12T03:42:44.588Z,9.68
2022-09-12T03:45:11.914Z,11.75
2022-09-12T03:47:38.463Z,11.95
2022-09-12T03:50:06.550Z,11.40
2022-09-12T03:52:33.590Z,12.57
2022-09-12T03:55:00.374Z,13.07
2022-09-12T03:57:26.895Z,13.80
2022-09-12T03:59:53.391Z,14.25
2022-09-12T04:02:20.026Z,11.68
2022-09-12T04:04:48.768Z,17.00
2022-09-12T04:07:16.732Z,16.45
2022-09-12T04:09:43.775Z,13.30
2022-09-12T04:12:10.341Z,16.20
2022-09-12T04:14:36.954Z,14.98
2022-09-12T04:17:03.742Z,13.55
2022-09-12T04:19:30.265Z,17.52
2022-09-12T04:21:57.003Z,16.38
2022-09-12T04:24:23.539Z,16.55
2022-09-12T04:26:50.210Z,14.40
2022-09-12T04:29:16.803Z,18.05
2022-09-12T04:31:43.550Z,18.77
2022-09-12T04:34:10.422Z,20.58
2022-09-12T04:36:37.827Z,17.25
2022-09-12T04:39:05.492Z,19.13
2022-09-12T04:41:38.444Z,19.27
2022-09-12T04:44:14.436Z,19.27
2022-09-12T04:46:45.783Z,17.55
2022-09-12T04:49:14.065Z,18.67
2022-09-12T04:51:42.446Z,20.38
2022-09-12T04:54:15.937Z,20.38
2022-09-12T04:56:44.587Z,19.40
2022-09-12T04:59:13.247Z,27.48
2022-09-12T05:01:40.369Z,20.25
2022-09-12T05:04:07.429Z,20.05
2022-09-12T05:06:36.091Z,26.33
2022-09-12T05:09:05.825Z,20.38
2022-09-12T05:12:02.823Z,21.60
2022-09-12T05:14:24.376Z,18.80
2022-09-12T05:16:51.134Z,21.23
2022-09-12T05:19:17.750Z,22.80
2022-09-12T05:21:44.451Z,22.38
2022-09-12T05:24:11.588Z,23.25
2022-09-12T05:26:39.231Z,24.23
2022-09-12T05:29:07.092Z,20.95
2022-09-12T05:31:34.887Z,19.35
2022-09-12T05:34:05.885Z,19.38
2022-09-12T05:36:32.933Z,22.00
2022-09-12T05:39:00.648Z,21.80
2022-09-12T05:41:30.728Z,22.63
2022-09-12T05:43:59.913Z,19.70
2022-09-12T05:46:29.490Z,20.10
2022-09-12T05:48:56.850Z,20.95
2022-09-12T05:51:29.122Z,18.65
2022-09-12T05:53:57.682Z,21.33
2022-09-12T05:56:27.363Z,22.77
2022-09-12T05:59:14.631Z,22.27
2022-09-12T06:01:41.644Z,26.13
2022-09-12T06:04:09.776Z,22.50
2022-09-12T06:06:41.511Z,23.70
2022-09-12T06:09:08.499Z,17.80
2022-09-12T06:11:37.365Z,21.48
2022-09-12T06:14:04.648Z,18.85
2022-09-12T06:16:33.317Z,20.42
2022-09-12T06:19:02.410Z,21.77
2022-09-12T06:21:31.215Z,20.83
2022-09-12T06:23:58.979Z,19.80
2022-09-12T06:26:28.027Z,19.35
2022-09-12T06:28:56.083Z,18.42
2022-09-12T06:31:36.450Z,19.80
2022-09-12T06:34:05.914Z,18.80
2022-09-12T06:36:37.788Z,18.45
2022-09-12T06:39:09.917Z,19.58
2022-09-12T06:41:39.408Z,17.83
2022-09-12T06:44:16.177Z,16.95
2022-09-12T06:46:43.167Z,21.08
2022-09-12T06:49:10.076Z,19.95
2022-09-12T06:51:37.877Z,20.33
2022-09-12T06:54:05.483Z,20.15
2022-09-12T06:56:32.100Z,19.42
2022-09-12T06:58:59.471Z,16.77
2022-09-12T07:01:31.067Z,17.50
2022-09-12T07:04:00.388Z,24.65
2022-09-12T07:06:31.892Z,19.90
2022-09-12T07:09:00.117Z,18.38
2022-09-12T07:11:30.544Z,23.73
2022-09-12T07:13:59.172Z,21.80
2022-09-12T07:16:25.848Z,22.27
2022-09-12T07:18:54.967Z,24.00
2022-09-12T07:21:21.900Z,22.30
2022-09-12T07:23:49.266Z,22.73
2022-09-12T07:26:16.587Z,18.35
2022-09-12T07:28:43.780Z,18.30
2022-09-12T07:31:16.406Z,18.55
2022-09-12T07:33:44.112Z,27.98
2022-09-12T07:36:14.145Z,16.05
2022-09-12T07:38:41.348Z,22.25
2022-09-12T07:41:12.790Z,24.13
2022-09-12T07:43:39.488Z,23.40
2022-09-12T07:46:06.596Z,22.35
2022-09-12T07:48:33.897Z,19.63
2022-09-12T07:51:02.152Z,23.05
2022-09-12T07:53:34.409Z,18.17
2022-09-12T07:56:01.083Z,19.63
2022-09-12T07:58:27.615Z,16.33
2022-09-12T08:00:54.167Z,18.02
2022-09-12T08:03:20.918Z,20.63
2022-09-12T08:05:47.400Z,18.45
2022-09-12T08:08:14.009Z,16.70
2022-09-12T08:10:40.518Z,18.77
2022-09-12T08:13:10.644Z,19.60
2022-09-12T08:15:37.451Z,19.15
2022-09-12T08:18:04.197Z,20.17
2022-09-12T08:20:31.019Z,15.15
2022-09-12T08:22:57.535Z,18.40
2022-09-12T08:25:24.208Z,20.00
2022-09-12T08:27:50.745Z,18.13
2022-09-12T08:30:17.376Z,17.73
2022-09-12T08:32:43.943Z,16.52
2022-09-12T08:35:10.497Z,18.00
2022-09-12T08:37:37.073Z,19.85
2022-09-12T08:40:06.776Z,17.25
2022-09-12T08:43:14.230Z,16.65
2022-09-12T08:45:54.517Z,19.58
2022-09-12T08:48:21.291Z,17.92
2022-09-12T08:50:49.967Z,16.27
2022-09-12T08:53:21.492Z,17.10
2022-09-12T08:55:56.368Z,18.38
2022-09-12T08:58:24.867Z,16.58
2022-09-12T09:01:19.839Z,18.35
2022-09-12T09:04:20.665Z,17.70
2022-09-12T09:06:53.189Z,16.83
2022-09-12T09:09:57.372Z,15.73
2022-09-12T09:12:38.669Z,15.77
2022-09-12T09:15:27.006Z,17.42
2022-09-12T09:18:10.849Z,16.33
2022-09-12T09:20:47.207Z,17.77
2022-09-12T09:26:26.500Z,18.15
2022-09-12T09:29:04.883Z,17.90
2022-09-12T09:31:37.674Z,16.17
2022-09-12T09:34:14.051Z,21.35
2022-09-12T09:39:28.792Z,17.20
2022-09-12T09:42:10.445Z,16.88
2022-09-12T09:44:37.917Z,18.27
2022-09-12T09:47:05.340Z,15.65
2022-09-12T09:49:34.421Z,14.57
2022-09-12T09:52:02.518Z,15.10
2022-09-12T09:54:44.606Z,18.13
2022-09-12T09:57:44.624Z,14.02
2022-09-12T10:00:29.820Z,14.50
2022-09-12T10:03:14.929Z,17.70
2022-09-12T10:05:48.632Z,12.00
2022-09-12T10:08:32.645Z,12.55
2022-09-12T10:11:20.844Z,14.43
2022-09-12T10:13:51.175Z,11.70
2022-09-12T10:16:22.615Z,13.07
2022-09-12T10:18:52.454Z,15.10
2022-09-12T10:21:29.626Z,12.80
2022-09-12T10:24:06.611Z,16.73
2022-09-12T10:26:37.568Z,15.13
2022-09-12T10:29:16.107Z,10.05
2022-09-12T10:31:55.596Z,8.63
2022-09-12T10:34:31.118Z,10.48
2022-09-12T10:37:04.585Z,10.35
2022-09-12T10:39:33.441Z,9.27
2022-09-12T10:42:01.431Z,9.38
2022-09-12T10:44:31.014Z,10.63
2022-09-12T10:46:59.031Z,9.23
2022-09-12T10:49:29.617Z,11.27
2022-09-12T10:51:59.695Z,10.15
2022-09-12T10:54:28.595Z,7.78
2022-09-12T10:57:06.829Z,7.90
2022-09-12T11:00:27.763Z,8.65
2022-09-12T11:02:59.414Z,7.20
2022-09-12T11:05:44.072Z,12.55
2022-09-12T11:08:13.259Z,7.53
2022-09-12T11:10:54.541Z,7.22
2022-09-12T11:13:29.983Z,7.28
2022-09-12T11:16:11.623Z,8.40
2022-09-12T11:18:45.018Z,7.20
2022-09-12T11:21:23.839Z,7.75
2022-09-12T11:24:12.939Z,6.80
2022-09-12T11:26:53.331Z,6.10
2022-09-12T11:29:47.252Z,6.30
2022-09-12T11:32:16.767Z,6.55
2022-09-12T11:35:31.289Z,7.22
2022-09-12T11:38:16.333Z,7.50
2022-09-12T11:40:46.484Z,6.70
2022-09-12T11:43:25.968Z,6.43
2022-09-12T11:45:53.346Z,6.22
2022-09-12T11:48:49.197Z,5.88
2022-09-12T11:51:33.148Z,4.28
2022-09-12T11:54:14.099Z,6.35
2022-09-12T11:56:46.336Z,5.05
2022-09-12T11:59:26.024Z,8.40
2022-09-12T12:01:59.677Z,3.67
2022-09-12T12:04:37.070Z,3.30
2022-09-12T12:07:11.378Z,4.05
2022-09-12T12:09:50.316Z,3.35
2022-09-12T12:12:25.008Z,4.13
2022-09-12T12:14:54.834Z,4.63
2022-09-12T12:17:24.429Z,3.65
2022-09-12T12:20:05.563Z,4.10
2022-09-12T12:22:34.272Z,3.40
2022-09-12T12:25:12.802Z,3.63
2022-09-12T12:27:47.454Z,3.25
2022-09-12T12:30:29.408Z,3.97
2022-09-12T12:33:13.001Z,3.03
2022-09-12T12:35:46.834Z,5.25
2022-09-12T12:38:32.115Z,3.10
2022-09-12T12:41:17.032Z,3.00
2022-09-12T12:43:51.504Z,3.05
2022-09-12T12:46:26.848Z,3.83
2022-09-12T12:48:59.951Z,3.75
2022-09-12T12:51:31.864Z,3.33
2022-09-12T12:54:01.177Z,3.47
2022-09-12T12:56:42.419Z,3.90
2022-09-12T12:59:17.936Z,3.05
2022-09-12T13:01:51.538Z,2.80
2022-09-12T13:04:24.777Z,3.20
2022-09-12T13:07:07.206Z,3.45
2022-09-12T13:09:39.653Z,3.53
2022-09-12T13:12:06.264Z,3.90
2022-09-12T13:14:53.977Z,3.90
2022-09-12T13:17:35.690Z,4.00
2022-09-12T13:20:29.729Z,4.30
2022-09-12T13:22:57.746Z,2.67
2022-09-12T13:25:37.069Z,2.28
2022-09-12T13:28:11.500Z,3.05
2022-09-12T13:30:42.626Z,2.30
2022-09-12T13:33:23.603Z,5.00
2022-09-12T13:35:59.025Z,3.45
2022-09-12T13:38:36.963Z,3.53
2022-09-12T13:41:45.460Z,3.35
2022-09-12T13:44:15.987Z,2.85
2022-09-12T13:46:42.798Z,2.08
2022-09-12T13:49:28.259Z,6.15
2022-09-12T13:52:23.077Z,3.10
2022-09-12T13:54:54.121Z,2.78
2022-09-12T13:57:30.626Z,3.03
2022-09-12T13:59:58.978Z,5.43
2022-09-12T14:02:28.844Z,2.58
2022-09-12T14:05:11.480Z,2.78
2022-09-12T14:07:56.123Z,2.83
2022-09-12T14:10:33.572Z,4.32
2022-09-12T14:13:02.800Z,2.28
2022-09-12T14:15:32.253Z,3.88
2022-09-12T14:18:01.526Z,2.22
2022-09-12T14:20:33.807Z,2.50
2022-09-12T14:23:04.238Z,4.47
2022-09-12T14:25:41.104Z,2.13
2022-09-12T14:28:13.560Z,2.80
2022-09-12T14:30:40.836Z,3.72
2022-09-12T14:33:10.178Z,3.00
2022-09-12T14:35:44.502Z,3.00
2022-09-12T14:38:16.860Z,3.65
2022-09-12T14:41:10.784Z,2.78
2022-09-12T14:43:42.544Z,3.17
2022-09-12T14:46:39.698Z,2.60
2022-09-12T14:49:21.111Z,3.17
2022-09-12T14:51:51.501Z,4.40
2022-09-12T14:54:40.184Z,3.08
2022-09-12T14:57:28.075Z,2.78
2022-09-12T15:00:09.570Z,2.58
2022-09-12T15:02:36.109Z,2.72
2022-09-12T15:05:08.952Z,4.03
2022-09-12T15:07:41.068Z,2.88
2022-09-12T15:10:27.934Z,2.97
2022-09-12T15:13:09.482Z,4.97
2022-09-12T15:15:38.122Z,3.63
2022-09-12T15:18:06.818Z,4.50
2022-09-12T15:20:36.445Z,3.10
2022-09-12T15:23:03.303Z,2.80
2022-09-12T15:25:29.861Z,3.00
2022-09-12T15:27:56.518Z,2.65
2022-09-12T15:30:23.092Z,4.10
2022-09-12T15:32:49.714Z,6.60
2022-09-12T15:35:18.025Z,3.38
2022-09-12T15:37:45.275Z,5.25
2022-09-12T15:40:13.198Z,3.55
2022-09-12T15:42:40.250Z,3.22
2022-09-12T15:45:27.736Z,2.60
2022-09-12T15:47:55.374Z,3.30
2022-09-12T15:50:22.104Z,2.83
2022-09-12T15:52:48.741Z,3.88
2022-09-12T15:55:18.736Z,2.90
2022-09-12T15:57:45.799Z,2.55
2022-09-12T16:00:14.156Z,3.38
2022-09-12T16:02:40.985Z,3.28
2022-09-12T16:05:17.331Z,2.50
2022-09-12T16:07:44.651Z,2.85
2022-09-12T16:10:16.378Z,2.67
2022-09-12T16:12:43.345Z,3.15
2022-09-12T16:15:16.896Z,2.60
2022-09-12T16:17:43.427Z,2.92
2022-09-12T16:20:10.479Z,2.47
2022-09-12T16:22:37.482Z,3.78
2022-09-12T16:25:05.050Z,4.88
2022-09-12T16:27:32.567Z,5.10
2022-09-12T16:29:59.273Z,2.75
2022-09-12T16:32:25.879Z,3.03
2022-09-12T16:34:52.889Z,2.75
2022-09-12T16:37:19.458Z,5.10
2022-09-12T16:39:46.440Z,2.70
2022-09-12T16:42:13.113Z,3.10
2022-09-12T16:44:39.604Z,2.92
2022-09-12T16:47:07.142Z,2.85
2022-09-12T16:49:33.715Z,2.83
2022-09-12T16:52:00.288Z,4.07
2022-09-12T16:54:26.814Z,2.83
2022-09-12T16:56:53.315Z,2.78
2022-09-12T16:59:19.837Z,2.80
2022-09-12T17:01:46.526Z,2.67
2022-09-12T17:04:13.152Z,3.97
2022-09-12T17:06:40.049Z,4.50
2022-09-12T17:09:06.625Z,3.92
2022-09-12T17:11:36.468Z,4.20
2022-09-12T17:14:06.977Z,2.78
2022-09-12T17:16:36.504Z,3.63
2022-09-12T17:19:03.430Z,3.42
2022-09-12T17:21:30.133Z,2.33
2022-09-12T17:23:56.856Z,2.85
2022-09-12T17:26:23.439Z,2.80
2022-09-12T17:28:50.161Z,3.45
2022-09-12T17:31:17.339Z,2.35
2022-09-12T17:33:43.929Z,2.53
2022-09-12T17:36:16.370Z,2.70
2022-09-12T17:38:44.825Z,5.85
2022-09-12T17:41:23.703Z,2.22
2022-09-12T17:43:58.886Z,2.30
2022-09-12T17:46:32.861Z,2.30
2022-09-12T17:49:01.047Z,3.17
2022-09-12T17:51:31.200Z,2.35
2022-09-12T17:53:59.240Z,2.30
2022-09-12T17:56:27.998Z,3.15
2022-09-12T17:58:56.430Z,2.30
2022-09-12T18:01:42.106Z,2.22
2022-09-12T18:04:08.849Z,3.85
2022-09-12T18:06:35.632Z,2.22
2022-09-12T18:09:05.406Z,2.97
2022-09-12T18:11:32.997Z,2.50
2022-09-12T18:14:00.117Z,6.38
2022-09-12T18:16:28.538Z,2.30
2022-09-12T18:18:55.685Z,2.40
2022-09-12T18:21:22.252Z,3.33
2022-09-12T18:23:48.814Z,3.22
2022-09-12T18:26:15.457Z,5.80
2022-09-12T18:28:44.235Z,3.55
2022-09-12T18:31:19.805Z,2.47
2022-09-12T18:33:47.211Z,2.83
2022-09-12T18:36:15.670Z,2.40
2022-09-12T18:38:43.258Z,2.88
2022-09-12T18:41:12.368Z,2.97
2022-09-12T18:43:39.448Z,2.95
2022-09-12T18:46:12.548Z,3.00
2022-09-12T18:48:39.230Z,2.95
2022-09-12T18:51:08.657Z,3.90
2022-09-12T18:53:36.770Z,3.03
2022-09-12T18:56:06.367Z,3.60
2022-09-12T18:58:32.856Z,3.28
2022-09-12T19:00:59.413Z,3.22
2022-09-12T19:03:26.318Z,2.97
2022-09-12T19:05:53.326Z,4.00
2022-09-12T19:08:19.893Z,3.10
2022-09-12T19:10:55.051Z,6.28
2022-09-12T19:13:21.846Z,2.80
2022-09-12T19:15:48.449Z,3.15
2022-09-12T19:18:15.790Z,9.27
2022-09-12T19:20:42.344Z,2.65
2022-09-12T19:23:08.970Z,3.10
2022-09-12T19:25:35.546Z,4.22
2022-09-12T19:28:02.320Z,3.90
2022-09-12T19:30:28.889Z,3.00
2022-09-12T19:32:55.483Z,3.50
2022-09-12T19:35:23.083Z,3.55
2022-09-12T19:37:49.825Z,3.85
2022-09-12T19:40:16.442Z,3.90
2022-09-12T19:42:43.029Z,2.97
2022-09-12T19:45:10.365Z,4.55
2022-09-12T19:47:38.219Z,3.95
2022-09-12T19:50:05.399Z,2.83
2022-09-12T19:52:31.929Z,3.40
2022-09-12T19:54:58.501Z,3.03
2022-09-12T19:57:25.022Z,4.32
2022-09-12T19:59:51.577Z,2.80
2022-09-12T20:02:18.387Z,2.95
2022-09-12T20:04:45.415Z,4.47
2022-09-12T20:07:11.960Z,3.28
2022-09-12T20:09:38.585Z,3.47
2022-09-12T20:12:05.527Z,3.30
2022-09-12T20:14:32.137Z,7.07
2022-09-12T20:16:58.682Z,4.38
2022-09-12T20:19:25.506Z,3.47
2022-09-12T20:21:52.097Z,3.65
2022-09-12T20:24:18.692Z,4.70
2022-09-12T20:26:45.381Z,7.60
2022-09-12T20:29:12.129Z,3.83
2022-09-12T20:31:40.951Z,4.88
2022-09-12T20:34:10.529Z,4.35
2022-09-12T20:36:37.074Z,6.95
2022-09-12T20:39:03.769Z,4.32
2022-09-12T20:41:33.268Z,3.33
2022-09-12T20:44:00.135Z,3.35
2022-09-12T20:46:28.086Z,4.30
2022-09-12T20:48:55.089Z,3.22
2022-09-12T20:51:22.546Z,3.88
2022-09-12T20:53:53.416Z,5.32
2022-09-12T20:56:20.298Z,5.30
2022-09-12T20:58:46.887Z,4.15
2022-09-12T21:01:15.976Z,3.83
2022-09-12T21:03:43.969Z,5.10
2022-09-12T21:06:14.794Z,4.38
2022-09-12T21:08:41.386Z,4.15
2022-09-12T21:11:07.999Z,3.33
2022-09-12T21:13:35.152Z,3.47
2022-09-12T21:16:21.998Z,5.20
2022-09-12T21:18:54.999Z,2.97
2022-09-12T21:21:22.080Z,5.20
2022-09-12T21:23:50.614Z,3.88
2022-09-12T21:26:18.319Z,4.40
2022-09-12T21:28:44.995Z,4.82
2022-09-12T21:31:11.606Z,3.42
2022-09-12T21:33:38.346Z,4.18
2022-09-12T21:36:06.681Z,7.20
2022-09-12T21:38:33.896Z,5.97
2022-09-12T21:41:15.034Z,4.40
2022-09-12T21:43:43.227Z,4.55
2022-09-12T21:46:11.060Z,4.20
2022-09-12T21:48:37.778Z,3.88
2022-09-12T21:51:04.654Z,3.65
2022-09-12T21:53:32.147Z,3.45
2022-09-12T21:56:07.857Z,3.35
2022-09-12T21:58:34.943Z,4.10
2022-09-12T22:01:02.019Z,5.88
2022-09-12T22:03:29.258Z,5.05
2022-09-12T22:06:00.533Z,3.40
2022-09-12T22:08:29.374Z,3.10
2022-09-12T22:11:07.995Z,4.72
2022-09-12T22:13:35.611Z,5.05
2022-09-12T22:16:03.519Z,6.35
2022-09-12T22:18:32.422Z,3.72
2022-09-12T22:21:05.000Z,3.40
2022-09-12T22:23:50.823Z,4.28
2022-09-12T22:26:17.546Z,3.75
2022-09-12T22:28:44.166Z,4.60
2022-09-12T22:31:12.654Z,3.42
2022-09-12T22:33:40.112Z,3.80
2022-09-12T22:36:07.376Z,3.63
2022-09-12T22:38:34.002Z,3.80
2022-09-12T22:41:10.361Z,6.03
2022-09-12T22:43:37.624Z,4.10
2022-09-12T22:46:12.532Z,5.72
2022-09-12T22:48:39.809Z,4.28
2022-09-12T22:51:07.418Z,3.28
2022-09-12T22:53:35.230Z,3.83
2022-09-12T22:56:02.388Z,3.67
2022-09-12T22:58:29.029Z,4.45
2022-09-12T23:00:55.527Z,4.00
2022-09-12T23:03:23.663Z,4.30
2022-09-12T23:05:50.226Z,6.53
2022-09-12T23:08:19.318Z,3.88
2022-09-12T23:10:46.049Z,3.63
2022-09-12T23:13:12.885Z,6.75
2022-09-12T23:15:39.479Z,5.03
2022-09-12T23:18:06.005Z,9.05
2022-09-12T23:20:59.587Z,5.43
2022-09-12T23:23:26.659Z,7.45
2022-09-12T23:26:05.054Z,5.97
2022-09-12T23:28:32.237Z,5.65
2022-09-12T23:31:00.264Z,5.85
2022-09-12T23:33:30.698Z,6.35
2022-09-12T23:36:01.793Z,6.22
2022-09-12T23:38:32.471Z,8.23
2022-09-12T23:41:00.335Z,5.97
2022-09-12T23:43:27.601Z,9.70
2022-09-12T23:45:54.183Z,6.93
2022-09-12T23:48:20.901Z,8.98
2022-09-12T23:50:48.780Z,6.25
2022-09-12T23:53:17.645Z,7.95
2022-09-12T23:55:47.865Z,6.57
2022-09-12T23:58:16.578Z,6.70
